createdAt,value
2022-10-07T00:00:47.360Z,94.63
2022-10-07T00:03:14.489Z,96.44
2022-10-07T00:05:41.322Z,96.39
2022-10-07T00:08:08.304Z,96.22
2022-10-07T00:10:43.244Z,97.29
2022-10-07T00:13:12.205Z,97.60
2022-10-07T00:15:39.002Z,97.10
2022-10-07T00:18:05.582Z,95.10
2022-10-07T00:20:37.610Z,95.21
2022-10-07T00:23:04.205Z,94.37
2022-10-07T00:25:30.801Z,95.31
2022-10-07T00:27:58.112Z,95.89
2022-10-07T00:30:24.629Z,96.90
2022-10-07T00:32:51.141Z,97.53
2022-10-07T00:35:17.637Z,97.07
2022-10-07T00:37:44.185Z,96.90
2022-10-07T00:40:13.071Z,97.23
2022-10-07T00:42:40.559Z,98.25
2022-10-07T00:45:19.371Z,97.41
2022-10-07T00:47:49.004Z,95.62
2022-10-07T00:50:26.562Z,96.40
2022-10-07T00:52:57.409Z,97.09
2022-10-07T00:55:27.413Z,96.56
2022-10-07T00:57:57.220Z,94.93
2022-10-07T01:00:24.161Z,94.38
2022-10-07T01:02:51.747Z,95.11
2022-10-07T01:05:18.868Z,96.20
2022-10-07T01:07:48.299Z,97.83
2022-10-07T01:10:20.022Z,97.31
2022-10-07T01:13:05.187Z,96.49
2022-10-07T01:15:37.559Z,96.87
2022-10-07T01:18:17.674Z,96.87
2022-10-07T01:20:57.916Z,97.18
2022-10-07T01:23:36.262Z,98.29
2022-10-07T01:26:14.745Z,98.14
2022-10-07T01:28:46.702Z,98.12
2022-10-07T01:31:17.696Z,98.76
2022-10-07T01:33:46.330Z,99.78
2022-10-07T01:36:20.866Z,100.00
2022-10-07T01:38:53.033Z,100.00
2022-10-07T01:41:21.426Z,99.54
2022-10-07T01:43:52.603Z,100.00
2022-10-07T01:46:26.301Z,100.00
2022-10-07T01:48:53.377Z,97.57
2022-10-07T01:51:27.164Z,97.63
2022-10-07T01:54:14.222Z,98.70
2022-10-07T01:57:14.735Z,98.88
2022-10-07T02:00:05.915Z,97.44
2022-10-07T02:03:05.667Z,99.19
2022-10-07T02:05:35.498Z,98.31
2022-10-07T02:08:28.802Z,98.46
2022-10-07T02:11:16.142Z,99.10
2022-10-07T02:14:11.130Z,98.78
2022-10-07T02:16:42.082Z,99.28
2022-10-07T02:19:17.578Z,99.73
2022-10-07T02:21:49.252Z,99.46
2022-10-07T02:24:19.181Z,100.00
2022-10-07T02:26:47.058Z,99.66
2022-10-07T02:29:18.378Z,99.18
2022-10-07T02:31:45.808Z,98.67
2022-10-07T02:34:19.981Z,99.04
2022-10-07T02:36:52.888Z,99.31
2022-10-07T02:39:19.335Z,98.45
2022-10-07T02:42:03.731Z,98.60
2022-10-07T02:44:38.686Z,99.67
2022-10-07T02:47:32.001Z,99.15
2022-10-07T02:50:01.271Z,99.52
2022-10-07T02:52:31.362Z,99.46
2022-10-07T02:55:04.377Z,100.00
2022-10-07T02:57:35.084Z,98.83
2022-10-07T03:00:04.291Z,99.16
2022-10-07T03:02:54.410Z,99.10
2022-10-07T03:05:22.544Z,98.82
2022-10-07T03:07:53.904Z,99.33
2022-10-07T03:10:20.549Z,100.00
2022-10-07T03:12:47.003Z,100.00
2022-10-07T03:15:13.687Z,100.00
2022-10-07T03:17:40.581Z,100.00
2022-10-07T03:20:08.938Z,100.00
2022-10-07T03:22:35.887Z,100.00
2022-10-07T03:25:02.416Z,99.97
2022-10-07T03:27:29.101Z,99.16
2022-10-07T03:29:55.689Z,99.68
2022-10-07T03:32:22.756Z,99.87
2022-10-07T03:34:49.155Z,100.00
2022-10-07T03:37:15.598Z,99.75
2022-10-07T03:39:42.036Z,99.27
2022-10-07T03:42:08.827Z,98.25
2022-10-07T03:44:35.752Z,99.41
2022-10-07T03:47:07.588Z,97.99
2022-10-07T03:49:37.060Z,98.43
2022-10-07T03:52:05.238Z,98.81
2022-10-07T03:54:32.440Z,98.26
2022-10-07T03:56:58.946Z,99.69
2022-10-07T03:59:25.367Z,98.97
2022-10-07T04:01:51.835Z,99.02
2022-10-07T04:04:18.298Z,99.43
2022-10-07T04:06:45.491Z,99.73
2022-10-07T04:09:13.646Z,100.00
2022-10-07T04:11:41.611Z,100.00
2022-10-07T04:14:08.451Z,99.90
2022-10-07T04:16:38.157Z,100.00
2022-10-07T04:19:05.938Z,98.77
2022-10-07T04:21:32.539Z,99.51
2022-10-07T04:23:59.088Z,99.44
2022-10-07T04:26:25.513Z,100.00
2022-10-07T04:28:51.897Z,99.87
2022-10-07T04:31:18.633Z,99.31
2022-10-07T04:33:46.271Z,99.47
2022-10-07T04:36:13.534Z,98.47
2022-10-07T04:38:40.875Z,99.00
2022-10-07T04:41:08.168Z,99.09
2022-10-07T04:43:35.217Z,100.00
2022-10-07T04:46:05.549Z,99.78
2022-10-07T04:48:32.406Z,98.91
2022-10-07T04:51:07.790Z,99.99
2022-10-07T04:53:35.297Z,99.43
2022-10-07T04:56:02.363Z,99.65
2022-10-07T04:58:30.144Z,100.00
2022-10-07T05:00:58.228Z,100.00
2022-10-07T05:03:27.363Z,100.00
2022-10-07T05:05:56.741Z,100.00
2022-10-07T05:08:24.604Z,100.00
2022-10-07T05:10:58.473Z,100.00
2022-10-07T05:13:26.265Z,99.98
2022-10-07T05:15:58.777Z,100.00
2022-10-07T05:18:26.999Z,100.00
2022-10-07T05:20:54.544Z,100.00
2022-10-07T05:23:27.866Z,100.00
2022-10-07T05:26:01.632Z,100.00
2022-10-07T05:28:28.361Z,100.00
2022-10-07T05:31:08.414Z,100.00
2022-10-07T05:33:35.777Z,100.00
2022-10-07T05:36:03.729Z,100.00
2022-10-07T05:38:30.198Z,99.90
2022-10-07T05:41:04.390Z,100.00
2022-10-07T05:43:33.860Z,99.94
2022-10-07T05:46:17.829Z,100.00
2022-10-07T05:48:49.241Z,100.00
2022-10-07T05:51:15.768Z,100.00
2022-10-07T05:53:42.993Z,100.00
2022-10-07T05:56:12.119Z,100.00
2022-10-07T05:58:38.957Z,100.00
2022-10-07T06:01:12.971Z,99.67
2022-10-07T06:03:41.186Z,100.00
2022-10-07T06:06:09.003Z,100.00
2022-10-07T06:08:36.662Z,100.00
2022-10-07T06:11:23.228Z,100.00
2022-10-07T06:13:51.143Z,100.00
2022-10-07T06:16:18.067Z,100.00
2022-10-07T06:18:44.647Z,100.00
2022-10-07T06:21:12.536Z,100.00
2022-10-07T06:23:39.352Z,100.00
2022-10-07T06:26:07.997Z,100.00
2022-10-07T06:28:41.679Z,100.00
2022-10-07T06:31:10.505Z,100.00
2022-10-07T06:33:37.262Z,100.00
2022-10-07T06:36:09.847Z,100.00
2022-10-07T06:38:36.250Z,99.94
2022-10-07T06:41:04.863Z,100.00
2022-10-07T06:43:32.244Z,99.80
2022-10-07T06:46:02.068Z,98.86
2022-10-07T06:48:30.269Z,98.24
2022-10-07T06:51:00.067Z,98.51
2022-10-07T06:53:27.148Z,98.03
2022-10-07T06:55:59.887Z,98.02
2022-10-07T06:58:26.731Z,98.31
2022-10-07T07:00:55.958Z,97.66
2022-10-07T07:03:23.342Z,98.63
2022-10-07T07:05:54.685Z,98.27
2022-10-07T07:08:27.663Z,97.66
2022-10-07T07:10:54.194Z,97.68
2022-10-07T07:13:20.787Z,97.83
2022-10-07T07:15:58.891Z,97.69
2022-10-07T07:18:25.957Z,97.19
2022-10-07T07:20:52.819Z,96.89
2022-10-07T07:23:19.279Z,97.00
2022-10-07T07:25:46.308Z,96.00
2022-10-07T07:28:15.429Z,95.94
2022-10-07T07:30:42.449Z,96.05
2022-10-07T07:33:09.509Z,95.29
2022-10-07T07:35:40.002Z,94.82
2022-10-07T07:38:06.433Z,96.33
2022-10-07T07:40:36.302Z,96.28
2022-10-07T07:43:03.465Z,96.26
2022-10-07T07:45:31.962Z,96.79
2022-10-07T07:47:59.724Z,97.45
2022-10-07T07:50:27.429Z,98.17
2022-10-07T07:52:57.341Z,97.10
2022-10-07T07:55:24.407Z,98.61
2022-10-07T07:57:50.859Z,98.97
2022-10-07T08:00:18.432Z,98.67
2022-10-07T08:02:44.893Z,98.49
2022-10-07T08:05:11.343Z,99.19
2022-10-07T08:07:38.501Z,98.37
2022-10-07T08:10:05.454Z,98.88
2022-10-07T08:12:32.720Z,99.46
2022-10-07T08:14:59.152Z,96.96
2022-10-07T08:17:25.622Z,95.51
2022-10-07T08:19:52.048Z,94.80
2022-10-07T08:22:18.629Z,94.81
2022-10-07T08:24:46.989Z,95.08
2022-10-07T08:27:13.421Z,94.11
2022-10-07T08:29:39.930Z,95.35
2022-10-07T08:32:06.367Z,95.20
2022-10-07T08:34:33.090Z,94.30
2022-10-07T08:36:59.511Z,94.47
2022-10-07T08:39:27.840Z,93.53
2022-10-07T08:42:18.510Z,93.45
2022-10-07T08:44:49.043Z,92.88
2022-10-07T08:47:18.368Z,92.83
2022-10-07T08:49:53.874Z,92.83
2022-10-07T08:52:41.581Z,90.53
2022-10-07T08:55:45.766Z,89.77
2022-10-07T08:58:29.678Z,89.37
2022-10-07T09:01:15.543Z,90.38
2022-10-07T09:03:51.458Z,90.00
2022-10-07T09:06:28.082Z,90.01
2022-10-07T09:09:02.250Z,90.37
2022-10-07T09:11:30.536Z,89.93
2022-10-07T09:14:01.863Z,91.41
2022-10-07T09:16:43.288Z,92.35
2022-10-07T09:19:17.049Z,90.84
2022-10-07T09:21:48.787Z,91.22
2022-10-07T09:24:26.616Z,90.92
2022-10-07T09:26:56.579Z,91.67
2022-10-07T09:29:28.848Z,92.13
2022-10-07T09:31:56.772Z,90.73
2022-10-07T09:34:29.009Z,90.71
2022-10-07T09:37:24.075Z,90.19
2022-10-07T09:39:53.076Z,89.91
2022-10-07T09:42:31.766Z,89.90
2022-10-07T09:45:01.987Z,90.73
2022-10-07T09:47:36.025Z,89.75
2022-10-07T09:50:02.567Z,90.74
2022-10-07T09:52:31.593Z,90.43
2022-10-07T09:55:37.499Z,89.72
2022-10-07T09:58:07.223Z,88.55
2022-10-07T10:00:42.993Z,89.00
2022-10-07T10:03:10.344Z,88.95
2022-10-07T10:05:40.045Z,88.10
2022-10-07T10:08:21.869Z,87.70
2022-10-07T10:10:54.709Z,87.95
2022-10-07T10:13:40.531Z,86.99
2022-10-07T10:16:25.390Z,86.36
2022-10-07T10:18:55.963Z,85.51
2022-10-07T10:21:36.022Z,86.07
2022-10-07T10:24:06.099Z,85.10
2022-10-07T10:26:38.538Z,84.08
2022-10-07T10:29:23.130Z,82.73
2022-10-07T10:32:01.680Z,82.82
2022-10-07T10:34:38.344Z,82.50
2022-10-07T10:37:20.326Z,81.88
2022-10-07T10:40:22.204Z,80.84
2022-10-07T10:43:12.822Z,81.42
2022-10-07T10:46:00.735Z,80.49
2022-10-07T10:49:14.822Z,80.34
2022-10-07T10:52:02.893Z,80.30
2022-10-07T10:54:54.541Z,78.04
2022-10-07T10:57:23.923Z,79.55
2022-10-07T11:00:16.308Z,77.84
2022-10-07T11:02:45.884Z,76.19
2022-10-07T11:05:23.241Z,76.26
2022-10-07T11:08:37.071Z,75.56
2022-10-07T11:11:12.113Z,76.31
2022-10-07T11:14:04.272Z,75.95
2022-10-07T11:16:38.492Z,75.52
2022-10-07T11:19:14.625Z,73.83
2022-10-07T11:21:48.309Z,73.04
2022-10-07T11:24:26.734Z,71.36
2022-10-07T11:27:08.648Z,72.32
2022-10-07T11:29:51.512Z,71.91
2022-10-07T11:32:26.949Z,73.11
2022-10-07T11:35:15.157Z,73.78
2022-10-07T11:37:54.274Z,72.28
2022-10-07T11:40:28.792Z,72.63
2022-10-07T11:42:58.458Z,71.91
2022-10-07T11:45:49.836Z,71.37
2022-10-07T11:48:26.643Z,70.60
2022-10-07T11:51:02.040Z,71.08
2022-10-07T11:53:34.290Z,70.16
2022-10-07T11:56:14.346Z,70.19
2022-10-07T11:58:40.864Z,69.25
2022-10-07T12:01:25.517Z,68.89
2022-10-07T12:03:54.487Z,68.79
2022-10-07T12:06:20.986Z,67.37
2022-10-07T12:08:47.558Z,67.12
2022-10-07T12:11:17.259Z,67.04
2022-10-07T12:13:50.649Z,66.61
2022-10-07T12:16:23.228Z,65.70
2022-10-07T12:19:08.124Z,66.09
2022-10-07T12:21:59.352Z,65.98
2022-10-07T12:24:29.874Z,65.59
2022-10-07T12:27:07.664Z,65.41
2022-10-07T12:29:49.024Z,63.85
2022-10-07T12:32:53.014Z,64.27
2022-10-07T12:35:34.789Z,64.13
2022-10-07T12:38:14.124Z,63.09
2022-10-07T12:40:42.355Z,63.44
2022-10-07T12:43:26.523Z,64.96
2022-10-07T12:45:54.594Z,65.11
2022-10-07T12:48:23.011Z,64.11
2022-10-07T12:50:53.682Z,64.49
2022-10-07T12:53:24.658Z,63.94
2022-10-07T12:55:54.870Z,65.08
2022-10-07T12:59:10.597Z,65.23
2022-10-07T13:02:01.771Z,65.61
2022-10-07T13:04:28.223Z,65.73
2022-10-07T13:07:23.982Z,65.40
2022-10-07T13:10:15.193Z,66.35
2022-10-07T13:12:49.930Z,66.14
2022-10-07T13:15:47.105Z,67.15
2022-10-07T13:18:28.305Z,67.48
2022-10-07T13:21:11.012Z,68.02
2022-10-07T13:23:37.561Z,67.64
2022-10-07T13:26:04.530Z,67.07
2022-10-07T13:28:44.956Z,67.17
2022-10-07T13:31:15.040Z,67.26
2022-10-07T13:33:43.037Z,66.68
2022-10-07T13:36:22.077Z,67.19
2022-10-07T13:38:51.120Z,66.74
2022-10-07T13:41:27.505Z,66.65
2022-10-07T13:44:06.062Z,66.15
2022-10-07T13:46:37.149Z,66.83
2022-10-07T13:49:04.333Z,66.89
2022-10-07T13:51:36.705Z,66.99
2022-10-07T13:54:06.066Z,67.95
2022-10-07T13:56:37.910Z,67.47
2022-10-07T13:59:06.737Z,68.11
2022-10-07T14:01:38.441Z,68.51
2022-10-07T14:04:28.537Z,67.96
2022-10-07T14:06:56.036Z,68.56
2022-10-07T14:09:26.201Z,67.67
2022-10-07T14:12:00.561Z,67.56
2022-10-07T14:14:33.661Z,66.74
2022-10-07T14:17:00.517Z,67.51
2022-10-07T14:19:31.818Z,67.31
2022-10-07T14:22:13.582Z,67.08
2022-10-07T14:24:40.154Z,67.33
2022-10-07T14:27:39.553Z,67.09
2022-10-07T14:30:25.027Z,67.41
2022-10-07T14:33:33.601Z,67.08
2022-10-07T14:36:15.593Z,67.95
2022-10-07T14:38:43.772Z,67.46
2022-10-07T14:41:10.355Z,68.46
2022-10-07T14:43:43.205Z,68.37
2022-10-07T14:46:23.354Z,68.27
2022-10-07T14:48:51.781Z,67.99
2022-10-07T14:51:22.413Z,68.76
2022-10-07T14:53:56.385Z,68.55
2022-10-07T14:56:29.131Z,69.28
2022-10-07T14:58:56.333Z,68.42
2022-10-07T15:01:24.076Z,69.38
2022-10-07T15:03:51.012Z,69.31
2022-10-07T15:06:18.283Z,69.46
2022-10-07T15:08:46.069Z,69.98
2022-10-07T15:11:17.857Z,70.42
2022-10-07T15:13:47.508Z,70.52
2022-10-07T15:16:19.975Z,71.32
2022-10-07T15:18:51.885Z,71.03
2022-10-07T15:21:19.640Z,71.19
2022-10-07T15:23:53.118Z,70.86
2022-10-07T15:26:23.263Z,71.30
2022-10-07T15:28:55.161Z,71.94
2022-10-07T15:31:24.318Z,72.07
2022-10-07T15:33:50.818Z,72.12
2022-10-07T15:36:17.982Z,72.74
2022-10-07T15:38:44.583Z,73.50
2022-10-07T15:41:28.569Z,72.89
2022-10-07T15:43:57.058Z,73.16
2022-10-07T15:46:24.329Z,73.76
2022-10-07T15:48:56.768Z,74.09
2022-10-07T15:51:24.040Z,74.41
2022-10-07T15:53:50.434Z,74.76
2022-10-07T15:56:16.852Z,75.73
2022-10-07T15:58:44.210Z,75.75
2022-10-07T16:01:10.737Z,75.63
2022-10-07T16:03:40.432Z,77.04
2022-10-07T16:06:14.591Z,77.80
2022-10-07T16:08:40.997Z,78.37
2022-10-07T16:11:09.260Z,78.90
2022-10-07T16:13:36.754Z,79.86
2022-10-07T16:16:07.195Z,79.56
2022-10-07T16:18:39.341Z,79.49
2022-10-07T16:21:11.572Z,80.95
2022-10-07T16:23:40.094Z,82.36
2022-10-07T16:26:14.955Z,82.39
2022-10-07T16:29:02.196Z,84.01
2022-10-07T16:31:28.972Z,84.26
2022-10-07T16:33:55.708Z,84.85
2022-10-07T16:36:23.470Z,85.18
2022-10-07T16:38:51.253Z,84.97
2022-10-07T16:41:18.679Z,86.96
2022-10-07T16:43:45.783Z,86.57
2022-10-07T16:46:21.278Z,87.80
2022-10-07T16:48:49.195Z,89.52
2022-10-07T16:51:18.408Z,89.43
2022-10-07T16:53:49.877Z,90.08
2022-10-07T16:56:20.818Z,89.49
2022-10-07T16:58:47.373Z,91.05
2022-10-07T17:01:16.010Z,92.74
2022-10-07T17:03:49.854Z,93.36
2022-10-07T17:06:18.697Z,93.37
2022-10-07T17:08:48.301Z,94.12
2022-10-07T17:11:29.296Z,94.50
2022-10-07T17:14:07.567Z,95.50
2022-10-07T17:16:42.857Z,94.72
2022-10-07T17:19:12.342Z,95.40
2022-10-07T17:21:40.915Z,95.61
2022-10-07T17:24:08.331Z,96.73
2022-10-07T17:26:34.824Z,96.60
2022-10-07T17:29:04.098Z,96.74
2022-10-07T17:31:32.519Z,97.21
2022-10-07T17:33:59.256Z,97.18
2022-10-07T17:36:27.162Z,96.85
2022-10-07T17:38:54.126Z,98.04
2022-10-07T17:41:26.179Z,98.53
2022-10-07T17:43:55.782Z,98.97
2022-10-07T17:46:24.004Z,99.39
2022-10-07T17:48:52.874Z,100.00
2022-10-07T17:51:21.845Z,99.19
2022-10-07T17:53:52.499Z,99.66
2022-10-07T17:56:19.916Z,99.94
2022-10-07T17:58:48.679Z,99.60
2022-10-07T18:01:23.819Z,99.82
2022-10-07T18:03:52.695Z,100.00
2022-10-07T18:06:19.907Z,100.00
2022-10-07T18:08:47.907Z,100.00
2022-10-07T18:11:17.721Z,100.00
2022-10-07T18:14:03.420Z,100.00
2022-10-07T18:16:34.743Z,100.00
2022-10-07T18:19:01.820Z,100.00
2022-10-07T18:21:31.055Z,100.00
2022-10-07T18:23:58.786Z,100.00
2022-10-07T18:26:25.664Z,100.00
2022-10-07T18:28:52.358Z,100.00
2022-10-07T18:31:19.852Z,100.00
2022-10-07T18:33:46.411Z,100.00
2022-10-07T18:36:18.761Z,100.00
2022-10-07T18:38:45.869Z,100.00
2022-10-07T18:41:17.303Z,100.00
2022-10-07T18:43:45.493Z,100.00
2022-10-07T18:46:14.807Z,100.00
2022-10-07T18:48:43.130Z,100.00
2022-10-07T18:51:10.624Z,100.00
2022-10-07T18:53:39.831Z,100.00
2022-10-07T18:56:08.862Z,100.00
2022-10-07T18:58:37.558Z,100.00
2022-10-07T19:01:08.039Z,98.89
2022-10-07T19:03:37.581Z,98.33
2022-10-07T19:06:19.751Z,97.89
2022-10-07T19:08:46.427Z,97.25
2022-10-07T19:11:15.716Z,95.97
2022-10-07T19:13:53.413Z,95.88
2022-10-07T19:16:22.550Z,95.18
2022-10-07T19:18:52.349Z,94.89
2022-10-07T19:21:20.094Z,94.07
2022-10-07T19:23:48.482Z,93.72
2022-10-07T19:26:20.929Z,93.99
2022-10-07T19:28:48.861Z,94.05
2022-10-07T19:31:23.233Z,93.23
2022-10-07T19:33:51.811Z,93.82
2022-10-07T19:36:20.331Z,95.08
2022-10-07T19:38:52.162Z,95.99
2022-10-07T19:41:21.567Z,96.39
2022-10-07T19:43:49.017Z,96.33
2022-10-07T19:46:16.800Z,96.78
2022-10-07T19:48:43.363Z,97.02
2022-10-07T19:51:14.987Z,97.65
2022-10-07T19:53:46.815Z,98.71
2022-10-07T19:56:22.384Z,97.92
2022-10-07T19:59:10.720Z,100.00
2022-10-07T20:01:43.268Z,100.00
2022-10-07T20:04:16.125Z,100.00
2022-10-07T20:06:43.224Z,99.82
2022-10-07T20:09:12.567Z,100.00
2022-10-07T20:11:38.989Z,100.00
2022-10-07T20:14:06.581Z,100.00
2022-10-07T20:16:34.282Z,99.22
2022-10-07T20:19:05.321Z,99.18
2022-10-07T20:21:34.431Z,98.43
2022-10-07T20:24:01.608Z,98.72
2022-10-07T20:26:30.156Z,98.11
2022-10-07T20:28:58.843Z,98.85
2022-10-07T20:31:31.100Z,98.73
2022-10-07T20:33:59.073Z,98.52
2022-10-07T20:36:28.614Z,98.26
2022-10-07T20:39:19.013Z,99.00
2022-10-07T20:42:04.398Z,99.20
2022-10-07T20:44:30.796Z,99.31
2022-10-07T20:46:57.559Z,99.83
2022-10-07T20:49:28.404Z,100.00
2022-10-07T20:51:56.975Z,100.00
2022-10-07T20:54:24.917Z,99.40
2022-10-07T20:56:52.020Z,99.04
2022-10-07T20:59:18.638Z,99.75
2022-10-07T21:01:45.318Z,98.78
2022-10-07T21:04:14.087Z,98.84
2022-10-07T21:06:40.888Z,99.27
2022-10-07T21:09:07.695Z,99.95
2022-10-07T21:11:34.641Z,99.78
2022-10-07T21:14:01.114Z,99.60
2022-10-07T21:16:29.226Z,99.89
2022-10-07T21:18:59.720Z,100.00
2022-10-07T21:21:26.617Z,100.00
2022-10-07T21:23:53.222Z,100.00
2022-10-07T21:26:20.739Z,100.00
2022-10-07T21:28:48.403Z,100.00
2022-10-07T21:31:17.660Z,100.00
2022-10-07T21:33:46.636Z,100.00
2022-10-07T21:36:16.500Z,100.00
2022-10-07T21:38:44.743Z,100.00
2022-10-07T21:41:18.060Z,100.00
2022-10-07T21:43:49.187Z,100.00
2022-10-07T21:46:16.516Z,100.00
2022-10-07T21:48:44.067Z,100.00
2022-10-07T21:51:10.824Z,100.00
2022-10-07T21:53:37.219Z,100.00
2022-10-07T21:56:10.383Z,100.00
2022-10-07T21:58:36.791Z,100.00
2022-10-07T22:01:17.436Z,100.00
2022-10-07T22:03:44.503Z,100.00
2022-10-07T22:06:13.556Z,100.00
2022-10-07T22:08:42.154Z,100.00
2022-10-07T22:11:17.488Z,100.00
2022-10-07T22:13:45.187Z,100.00
2022-10-07T22:16:17.194Z,100.00
2022-10-07T22:18:51.931Z,100.00
2022-10-07T22:21:28.280Z,100.00
2022-10-07T22:24:01.465Z,100.00
2022-10-07T22:26:31.473Z,100.00
2022-10-07T22:28:58.239Z,100.00
2022-10-07T22:31:26.280Z,100.00
2022-10-07T22:33:55.390Z,100.00
2022-10-07T22:36:22.132Z,100.00
2022-10-07T22:38:49.043Z,100.00
2022-10-07T22:41:17.861Z,100.00
2022-10-07T22:43:46.881Z,100.00
2022-10-07T22:46:16.448Z,100.00
2022-10-07T22:48:43.509Z,100.00
2022-10-07T22:51:14.388Z,100.00
2022-10-07T22:53:48.857Z,100.00
2022-10-07T22:56:17.522Z,100.00
2022-10-07T22:58:50.079Z,100.00
2022-10-07T23:01:16.824Z,100.00
2022-10-07T23:03:44.129Z,100.00
2022-10-07T23:06:12.965Z,100.00
2022-10-07T23:08:40.048Z,100.00
2022-10-07T23:11:07.993Z,100.00
2022-10-07T23:13:36.627Z,100.00
2022-10-07T23:16:12.083Z,100.00
2022-10-07T23:18:39.474Z,100.00
2022-10-07T23:21:11.897Z,100.00
2022-10-07T23:23:39.841Z,100.00
2022-10-07T23:26:09.257Z,100.00
2022-10-07T23:28:35.741Z,100.00
2022-10-07T23:31:05.017Z,100.00
2022-10-07T23:33:32.950Z,100.00
2022-10-07T23:36:01.005Z,100.00
2022-10-07T23:38:28.559Z,100.00
2022-10-07T23:40:55.171Z,100.00
2022-10-07T23:43:22.722Z,100.00
2022-10-07T23:45:50.146Z,100.00
2022-10-07T23:48:19.095Z,100.00
2022-10-07T23:50:53.051Z,100.00
2022-10-07T23:53:20.698Z,100.00
2022-10-07T23:55:49.008Z,100.00
2022-10-07T23:58:16.702Z,100.00
